Gladstone, New Jersey
Current Conditions -  °F | °C
As of 9:53 PM on Thursday 18 Dec 2014 (Local Time) from KSMQ Reporting Station
Overcast Overcast  
Wind Chill: 36°   Ceiling: 3500
Heat Index: 39°   Visibility: 10mi
Dew Point: 26°   Wind: 5mph
Humidity: 60%   Direction: NA
Pressure: 29.99"   Gusts: NA
Location:  40.72°N, 74.67°W
Report Text: KSMQ 190253Z AUTO VRB04KT 10SM OVC035 04/M03 A2999 RMK AO2 SLP157 T00391033 50003
Loading
Personal Weather Stations






























Interactive Weather Map New forecast layout! Learn more

10-Day Weather Forecast

Advertisements
Track Severe Weather on mobile